createdAt,value
2022-09-28T00:00:12.985Z,9.98
2022-09-28T00:02:40.697Z,9.98
2022-09-28T00:05:14.457Z,9.92
2022-09-28T00:07:42.057Z,9.81
2022-09-28T00:10:09.479Z,9.57
2022-09-28T00:12:36.336Z,9.53
2022-09-28T00:15:03.911Z,9.50
2022-09-28T00:17:30.763Z,9.44
2022-09-28T00:19:58.062Z,9.43
2022-09-28T00:22:25.192Z,9.46
2022-09-28T00:24:52.047Z,9.44
2022-09-28T00:27:18.915Z,9.38
2022-09-28T00:29:46.045Z,9.40
2022-09-28T00:32:13.890Z,9.37
2022-09-28T00:34:46.002Z,9.47
2022-09-28T00:37:14.407Z,9.43
2022-09-28T00:39:41.509Z,9.43
2022-09-28T00:42:19.439Z,9.56
2022-09-28T00:44:50.369Z,9.67
2022-09-28T00:47:28.084Z,9.61
2022-09-28T00:50:00.643Z,9.58
2022-09-28T00:52:40.790Z,9.61
2022-09-28T00:55:12.324Z,9.73
2022-09-28T00:57:41.279Z,9.71
2022-09-28T01:00:08.977Z,9.65
2022-09-28T01:02:35.852Z,9.65
2022-09-28T01:05:04.152Z,9.73
2022-09-28T01:07:32.199Z,9.67
2022-09-28T01:09:59.332Z,9.59
2022-09-28T01:12:26.206Z,9.62
2022-09-28T01:14:53.366Z,9.63
2022-09-28T01:17:31.773Z,9.75
2022-09-28T01:20:07.728Z,9.78
2022-09-28T01:22:34.816Z,9.77
2022-09-28T01:25:18.194Z,9.74
2022-09-28T01:27:48.914Z,9.81
2022-09-28T01:30:19.084Z,9.90
2022-09-28T01:33:03.713Z,9.93
2022-09-28T01:35:51.811Z,9.92
2022-09-28T01:38:25.323Z,9.96
2022-09-28T01:40:53.139Z,9.98
2022-09-28T01:43:24.806Z,9.90
2022-09-28T01:46:00.995Z,9.88
2022-09-28T01:48:32.487Z,9.82
2022-09-28T01:51:03.866Z,9.76
2022-09-28T01:53:37.646Z,9.77
2022-09-28T01:56:13.358Z,9.83
2022-09-28T01:58:45.176Z,9.74
2022-09-28T02:01:18.754Z,9.55
2022-09-28T02:03:52.849Z,9.49
2022-09-28T02:06:29.135Z,9.57
2022-09-28T02:08:59.339Z,9.71
2022-09-28T02:11:29.967Z,9.72
2022-09-28T02:14:01.545Z,9.75
2022-09-28T02:16:28.559Z,9.78
2022-09-28T02:18:55.901Z,9.81
2022-09-28T02:21:29.586Z,9.85
2022-09-28T02:23:58.828Z,9.88
2022-09-28T02:26:30.976Z,9.89
2022-09-28T02:28:58.838Z,9.92
2022-09-28T02:31:26.872Z,9.95
2022-09-28T02:33:55.232Z,9.94
2022-09-28T02:36:22.510Z,9.99
2022-09-28T02:38:49.659Z,9.93
2022-09-28T02:41:54.254Z,10.02
2022-09-28T02:44:24.285Z,9.92
2022-09-28T02:46:59.796Z,9.94
2022-09-28T02:49:51.201Z,9.94
2022-09-28T02:52:33.778Z,9.90
2022-09-28T02:55:18.552Z,9.90
2022-09-28T02:58:03.621Z,9.85
2022-09-28T03:00:32.213Z,9.85
2022-09-28T03:03:36.339Z,9.80
2022-09-28T03:06:09.717Z,9.75
2022-09-28T03:08:52.165Z,9.75
2022-09-28T03:11:23.177Z,9.83
2022-09-28T03:13:50.122Z,9.93
2022-09-28T03:16:19.357Z,9.86
2022-09-28T03:18:47.458Z,9.86
2022-09-28T03:21:15.294Z,9.87
2022-09-28T03:23:42.767Z,9.89
2022-09-28T03:26:12.651Z,9.92
2022-09-28T03:28:39.867Z,9.96
2022-09-28T03:31:07.466Z,9.96
2022-09-28T03:33:34.735Z,10.00
2022-09-28T03:36:01.760Z,9.97
2022-09-28T03:38:29.597Z,10.00
2022-09-28T03:40:58.214Z,9.97
2022-09-28T03:43:26.791Z,9.91
2022-09-28T03:45:59.015Z,9.88
2022-09-28T03:48:35.297Z,9.86
2022-09-28T03:51:04.750Z,9.82
2022-09-28T03:53:33.239Z,9.81
2022-09-28T03:56:12.151Z,9.78
2022-09-28T03:58:39.399Z,9.68
2022-09-28T04:01:12.933Z,9.71
2022-09-28T04:03:44.643Z,9.78
2022-09-28T04:06:11.844Z,9.92
2022-09-28T04:08:39.097Z,9.87
2022-09-28T04:11:06.555Z,9.91
2022-09-28T04:13:33.871Z,9.83
2022-09-28T04:16:01.698Z,9.84
2022-09-28T04:18:29.516Z,9.58
2022-09-28T04:21:06.720Z,9.61
2022-09-28T04:23:35.689Z,9.72
2022-09-28T04:26:04.036Z,9.75
2022-09-28T04:28:50.218Z,9.78
2022-09-28T04:31:20.286Z,9.94
2022-09-28T04:33:47.369Z,9.69
2022-09-28T04:36:14.564Z,9.58
2022-09-28T04:38:52.888Z,9.41
2022-09-28T04:41:22.474Z,9.40
2022-09-28T04:43:50.451Z,9.38
2022-09-28T04:46:17.595Z,9.31
2022-09-28T04:48:46.506Z,9.23
2022-09-28T04:51:13.692Z,9.24
2022-09-28T04:53:40.576Z,9.23
2022-09-28T04:56:08.370Z,9.22
2022-09-28T04:58:35.947Z,9.20
2022-09-28T05:01:08.471Z,9.21
2022-09-28T05:03:37.923Z,9.13
2022-09-28T05:06:06.892Z,9.01
2022-09-28T05:08:36.194Z,9.02
2022-09-28T05:11:05.541Z,8.88
2022-09-28T05:13:35.618Z,8.76
2022-09-28T05:16:05.460Z,8.66
2022-09-28T05:18:34.871Z,8.55
2022-09-28T05:21:01.850Z,8.70
2022-09-28T05:23:29.181Z,8.86
2022-09-28T05:25:56.481Z,8.81
2022-09-28T05:28:27.251Z,8.93
2022-09-28T05:31:07.995Z,8.98
2022-09-28T05:33:36.333Z,8.97
2022-09-28T05:36:03.786Z,9.17
2022-09-28T05:38:31.316Z,9.19
2022-09-28T05:40:58.296Z,9.18
2022-09-28T05:43:26.516Z,9.40
2022-09-28T05:45:55.774Z,9.49
2022-09-28T05:48:23.339Z,9.58
2022-09-28T05:50:52.350Z,9.70
2022-09-28T05:53:19.413Z,9.66
2022-09-28T05:55:46.511Z,9.81
2022-09-28T05:58:13.877Z,9.83
2022-09-28T06:00:40.779Z,9.90
2022-09-28T06:03:14.812Z,9.99
2022-09-28T06:05:41.900Z,10.02
2022-09-28T06:08:18.929Z,10.18
2022-09-28T06:10:46.623Z,10.31
2022-09-28T06:13:14.021Z,10.71
2022-09-28T06:15:46.334Z,12.59
2022-09-28T06:18:16.770Z,15.20
2022-09-28T06:20:46.659Z,17.57
2022-09-28T06:23:16.936Z,19.40
2022-09-28T06:25:43.898Z,20.61
2022-09-28T06:28:12.903Z,21.90
2022-09-28T06:30:43.590Z,22.85
2022-09-28T06:33:14.394Z,23.45
2022-09-28T06:35:44.619Z,23.85
2022-09-28T06:38:14.448Z,24.20
2022-09-28T06:40:41.635Z,23.76
2022-09-28T06:43:15.402Z,24.06
2022-09-28T06:45:52.573Z,24.51
2022-09-28T06:48:20.362Z,24.94
2022-09-28T06:50:47.621Z,25.54
2022-09-28T06:53:16.626Z,25.74
2022-09-28T06:55:49.174Z,25.51
2022-09-28T06:58:19.617Z,25.52
2022-09-28T07:00:48.058Z,26.07
2022-09-28T07:03:20.074Z,26.49
2022-09-28T07:05:50.135Z,26.98
2022-09-28T07:08:17.985Z,27.26
2022-09-28T07:10:47.233Z,26.77
2022-09-28T07:13:38.289Z,26.95
2022-09-28T07:16:02.770Z,26.46
2022-09-28T07:18:30.255Z,25.77
2022-09-28T07:20:57.714Z,25.32
2022-09-28T07:23:30.632Z,26.06
2022-09-28T07:26:05.747Z,26.20
2022-09-28T07:28:35.302Z,26.76
2022-09-28T07:31:03.442Z,26.56
2022-09-28T07:33:32.767Z,26.43
2022-09-28T07:36:02.827Z,26.22
2022-09-28T07:38:30.429Z,26.04
2022-09-28T07:41:12.262Z,25.74
2022-09-28T07:43:41.458Z,25.10
2022-09-28T07:46:12.330Z,24.35
2022-09-28T07:48:41.756Z,24.19
2022-09-28T07:51:09.703Z,24.10
2022-09-28T07:53:38.418Z,23.33
2022-09-28T07:56:08.716Z,22.85
2022-09-28T07:58:37.195Z,23.50
2022-09-28T08:01:07.999Z,23.80
2022-09-28T08:03:35.607Z,23.77
2022-09-28T08:06:06.524Z,23.89
2022-09-28T08:08:35.006Z,24.19
2022-09-28T08:11:02.634Z,24.46
2022-09-28T08:13:31.084Z,23.97
2022-09-28T08:16:01.311Z,24.14
2022-09-28T08:18:29.002Z,23.23
2022-09-28T08:21:14.797Z,22.00
2022-09-28T08:23:42.904Z,22.19
2022-09-28T08:26:14.585Z,22.35
2022-09-28T08:28:44.917Z,22.65
2022-09-28T08:31:12.482Z,23.03
2022-09-28T08:33:41.298Z,23.03
2022-09-28T08:36:11.913Z,22.92
2022-09-28T08:38:40.410Z,22.32
2022-09-28T08:41:30.580Z,22.57
2022-09-28T08:44:01.628Z,22.11
2022-09-28T08:46:36.233Z,22.92
2022-09-28T08:49:24.142Z,22.17
2022-09-28T08:52:01.357Z,21.27
2022-09-28T08:54:58.874Z,20.76
2022-09-28T08:57:26.480Z,21.58
2022-09-28T08:59:56.835Z,21.84
2022-09-28T09:02:36.272Z,21.92
2022-09-28T09:05:06.384Z,22.53
2022-09-28T09:07:43.071Z,23.06
2022-09-28T09:10:26.903Z,21.99
2022-09-28T09:13:12.997Z,21.69
2022-09-28T09:15:50.771Z,22.79
2022-09-28T09:18:37.186Z,23.29
2022-09-28T09:21:09.499Z,24.51
2022-09-28T09:23:39.183Z,25.34
2022-09-28T09:26:23.567Z,25.28
2022-09-28T09:29:26.571Z,23.51
2022-09-28T09:32:45.903Z,22.32
2022-09-28T09:35:31.606Z,22.37
2022-09-28T09:38:06.492Z,20.89
2022-09-28T09:41:02.007Z,20.53
2022-09-28T09:43:58.677Z,19.20
2022-09-28T09:46:39.131Z,18.94
2022-09-28T09:49:14.483Z,19.25
2022-09-28T09:51:56.124Z,19.16
2022-09-28T09:54:27.562Z,18.83
2022-09-28T09:56:56.734Z,19.03
2022-09-28T09:59:42.161Z,18.85
2022-09-28T10:02:22.652Z,18.38
2022-09-28T10:04:54.961Z,18.04
2022-09-28T10:07:25.438Z,18.35
2022-09-28T10:09:56.263Z,18.37
2022-09-28T10:12:25.594Z,18.72
2022-09-28T10:14:55.354Z,18.95
2022-09-28T10:17:27.306Z,19.10
2022-09-28T10:19:59.069Z,18.91
2022-09-28T10:22:28.824Z,18.59
2022-09-28T10:24:58.477Z,18.98
2022-09-28T10:27:29.298Z,19.30
2022-09-28T10:30:00.915Z,19.05
2022-09-28T10:32:37.670Z,18.62
2022-09-28T10:35:22.757Z,18.62
2022-09-28T10:38:05.114Z,18.27
2022-09-28T10:40:55.942Z,18.33
2022-09-28T10:43:34.602Z,18.57
2022-09-28T10:46:24.229Z,18.50
2022-09-28T10:49:13.002Z,18.35
2022-09-28T10:51:51.638Z,18.64
2022-09-28T10:54:28.414Z,18.60
2022-09-28T10:56:57.836Z,18.70
2022-09-28T10:59:28.510Z,18.95
2022-09-28T11:02:15.998Z,19.12
2022-09-28T11:04:44.157Z,19.34
2022-09-28T11:07:26.465Z,19.40
2022-09-28T11:09:54.991Z,19.05
2022-09-28T11:12:27.320Z,18.65
2022-09-28T11:15:00.727Z,18.69
2022-09-28T11:17:32.555Z,18.88
2022-09-28T11:20:27.896Z,18.48
2022-09-28T11:22:58.567Z,18.36
2022-09-28T11:25:30.180Z,18.18
2022-09-28T11:28:00.676Z,18.22
2022-09-28T11:30:32.942Z,18.25
2022-09-28T11:33:04.091Z,18.17
2022-09-28T11:36:00.949Z,18.13
2022-09-28T11:38:50.589Z,18.12
2022-09-28T11:41:32.405Z,18.39
2022-09-28T11:44:31.100Z,18.37
2022-09-28T11:47:07.045Z,17.99
2022-09-28T11:49:48.215Z,17.84
2022-09-28T11:52:20.593Z,17.99
2022-09-28T11:54:55.008Z,18.12
2022-09-28T11:57:26.877Z,18.23
2022-09-28T12:00:01.407Z,18.13
2022-09-28T12:02:40.705Z,17.97
2022-09-28T12:05:20.963Z,18.15
2022-09-28T12:07:55.264Z,18.05
2022-09-28T12:10:51.801Z,17.94
2022-09-28T12:13:22.745Z,17.89
2022-09-28T12:21:41.506Z,17.78
2022-09-28T12:24:23.646Z,17.73
2022-09-28T12:27:00.662Z,17.59
2022-09-28T12:29:48.566Z,17.57
2022-09-28T12:32:21.809Z,17.68
2022-09-28T12:34:48.698Z,17.56
2022-09-28T12:37:19.104Z,17.57
2022-09-28T12:39:57.873Z,17.66
2022-09-28T12:42:46.038Z,17.74
2022-09-28T12:45:28.342Z,17.74
2022-09-28T12:48:14.627Z,17.84
2022-09-28T12:51:00.763Z,17.93
2022-09-28T12:54:00.397Z,18.15
2022-09-28T12:56:37.253Z,18.15
2022-09-28T12:59:20.976Z,18.14
2022-09-28T13:02:20.169Z,18.23
2022-09-28T13:05:01.951Z,18.15
2022-09-28T13:07:55.608Z,18.38
2022-09-28T13:10:33.788Z,18.24
2022-09-28T13:13:29.522Z,18.43
2022-09-28T13:16:18.587Z,18.26
2022-09-28T13:18:59.995Z,18.36
2022-09-28T13:21:36.366Z,18.32
2022-09-28T13:24:27.994Z,18.26
2022-09-28T13:26:54.813Z,18.05
2022-09-28T13:29:22.719Z,17.92
2022-09-28T13:31:57.361Z,17.88
2022-09-28T13:34:27.238Z,17.79
2022-09-28T13:37:16.891Z,17.72
2022-09-28T13:39:43.973Z,17.52
2022-09-28T13:42:42.222Z,17.45
2022-09-28T13:45:21.940Z,17.33
2022-09-28T13:47:51.752Z,17.22
2022-09-28T13:50:23.723Z,17.04
2022-09-28T13:53:19.755Z,16.99
2022-09-28T13:55:56.526Z,17.01
2022-09-28T13:58:32.141Z,17.21
2022-09-28T14:01:12.720Z,17.26
2022-09-28T14:04:15.809Z,17.36
2022-09-28T14:06:51.377Z,17.16
2022-09-28T14:09:45.996Z,17.30
2022-09-28T14:12:28.117Z,17.32
2022-09-28T14:14:55.444Z,17.22
2022-09-28T14:17:22.229Z,17.21
2022-09-28T14:19:54.961Z,17.12
2022-09-28T14:22:34.066Z,16.92
2022-09-28T14:25:10.082Z,16.94
2022-09-28T14:27:37.088Z,16.85
2022-09-28T14:30:17.858Z,16.86
2022-09-28T14:32:53.647Z,16.83
2022-09-28T14:35:31.382Z,17.01
2022-09-28T14:38:45.052Z,17.21
2022-09-28T14:41:44.726Z,17.12
2022-09-28T14:44:13.577Z,16.94
2022-09-28T14:46:43.685Z,16.81
2022-09-28T14:49:20.116Z,16.78
2022-09-28T14:51:47.103Z,16.82
2022-09-28T14:54:21.721Z,16.64
2022-09-28T14:56:51.797Z,16.68
2022-09-28T14:59:30.334Z,16.58
2022-09-28T15:02:01.266Z,16.53
2022-09-28T15:04:30.324Z,16.69
2022-09-28T15:07:00.366Z,16.60
2022-09-28T15:09:31.427Z,16.55
2022-09-28T15:12:12.209Z,16.59
2022-09-28T15:14:45.930Z,16.50
2022-09-28T15:17:21.258Z,16.43
2022-09-28T15:20:01.386Z,16.43
2022-09-28T15:22:30.229Z,16.46
2022-09-28T15:25:02.429Z,16.47
2022-09-28T15:27:37.967Z,16.40
2022-09-28T15:30:27.892Z,16.42
2022-09-28T15:32:56.987Z,16.42
2022-09-28T15:35:26.379Z,16.36
2022-09-28T15:37:54.881Z,16.38
2022-09-28T15:40:35.630Z,16.43
2022-09-28T15:43:02.508Z,16.37
2022-09-28T15:45:37.581Z,16.35
2022-09-28T15:48:22.326Z,16.26
2022-09-28T15:50:59.591Z,16.21
2022-09-28T15:53:26.948Z,16.23
2022-09-28T15:55:59.972Z,16.01
2022-09-28T15:58:27.385Z,15.92
2022-09-28T16:01:31.989Z,15.85
2022-09-28T16:03:59.650Z,15.90
2022-09-28T16:06:26.526Z,15.84
2022-09-28T16:08:53.755Z,15.81
2022-09-28T16:11:27.716Z,15.74
2022-09-28T16:14:07.277Z,15.72
2022-09-28T16:16:37.819Z,15.55
2022-09-28T16:19:05.126Z,15.49
2022-09-28T16:21:48.021Z,15.58
2022-09-28T16:24:20.509Z,15.51
2022-09-28T16:26:49.207Z,15.41
2022-09-28T16:29:41.983Z,15.33
2022-09-28T16:32:26.977Z,15.38
2022-09-28T16:35:10.189Z,15.37
2022-09-28T16:37:40.505Z,15.33
2022-09-28T16:40:08.963Z,15.31
2022-09-28T16:42:36.489Z,15.28
2022-09-28T16:45:05.081Z,15.24
2022-09-28T16:47:34.144Z,15.29
2022-09-28T16:50:02.313Z,15.36
2022-09-28T16:52:47.726Z,15.38
2022-09-28T16:58:04.890Z,15.29
2022-09-28T17:00:32.465Z,15.26
2022-09-28T17:02:59.452Z,15.31
2022-09-28T17:05:26.354Z,15.26
2022-09-28T17:08:04.032Z,15.21
2022-09-28T17:11:02.429Z,15.27
2022-09-28T17:13:36.034Z,15.23
2022-09-28T17:16:10.426Z,15.21
2022-09-28T17:18:39.115Z,15.20
2022-09-28T17:21:10.073Z,15.09
2022-09-28T17:23:37.205Z,14.98
2022-09-28T17:26:04.751Z,14.98
2022-09-28T17:28:34.489Z,14.86
2022-09-28T17:31:02.583Z,14.85
2022-09-28T17:33:29.774Z,14.78
2022-09-28T17:36:00.153Z,14.71
2022-09-28T17:38:27.396Z,14.72
2022-09-28T17:40:54.375Z,14.67
2022-09-28T17:43:22.218Z,14.62
2022-09-28T17:45:50.373Z,14.49
2022-09-28T17:48:18.992Z,14.44
2022-09-28T17:50:47.455Z,14.39
2022-09-28T17:53:17.546Z,14.31
2022-09-28T17:55:47.312Z,14.28
2022-09-28T17:58:22.252Z,14.22
2022-09-28T18:00:51.419Z,14.11
2022-09-28T18:03:23.022Z,13.96
2022-09-28T18:05:58.163Z,13.80
2022-09-28T18:08:25.345Z,13.71
2022-09-28T18:10:52.251Z,13.62
2022-09-28T18:13:19.167Z,13.60
2022-09-28T18:15:46.427Z,13.62
2022-09-28T18:18:13.340Z,13.68
2022-09-28T18:20:43.638Z,13.71
2022-09-28T18:23:10.694Z,13.63
2022-09-28T18:25:42.123Z,13.58
2022-09-28T18:28:09.995Z,13.51
2022-09-28T18:30:44.216Z,13.43
2022-09-28T18:33:15.295Z,13.39
2022-09-28T18:35:51.034Z,13.13
2022-09-28T18:38:17.955Z,13.14
2022-09-28T18:40:48.375Z,13.04
2022-09-28T18:43:18.179Z,12.99
2022-09-28T18:45:48.489Z,12.87
2022-09-28T18:48:15.511Z,12.79
2022-09-28T18:50:45.734Z,12.75
2022-09-28T18:53:15.856Z,12.69
2022-09-28T18:55:45.497Z,12.72
2022-09-28T18:58:15.746Z,12.64
2022-09-28T19:00:45.503Z,12.50
2022-09-28T19:03:14.289Z,12.45
2022-09-28T19:05:46.259Z,12.50
2022-09-28T19:08:16.780Z,12.48
2022-09-28T19:10:48.632Z,12.36
2022-09-28T19:13:18.637Z,12.40
2022-09-28T19:15:48.566Z,12.27
2022-09-28T19:18:19.508Z,12.27
2022-09-28T19:20:49.226Z,12.40
2022-09-28T19:23:16.353Z,12.33
2022-09-28T19:25:46.389Z,12.28
2022-09-28T19:28:16.018Z,12.35
2022-09-28T19:30:55.566Z,12.34
2022-09-28T19:33:22.487Z,12.32
2022-09-28T19:36:00.787Z,12.32
2022-09-28T19:38:29.078Z,12.32
2022-09-28T19:40:56.502Z,12.37
2022-09-28T19:43:24.335Z,12.43
2022-09-28T19:45:52.587Z,12.28
2022-09-28T19:48:21.913Z,12.25
2022-09-28T19:51:03.386Z,12.21
2022-09-28T19:53:33.014Z,12.21
2022-09-28T19:56:03.758Z,12.22
2022-09-28T19:58:34.386Z,12.22
2022-09-28T20:01:05.365Z,12.22
2022-09-28T20:03:33.555Z,12.22
2022-09-28T20:06:01.765Z,12.21
2022-09-28T20:08:30.195Z,12.19
2022-09-28T20:10:59.646Z,12.24
2022-09-28T20:13:31.733Z,12.16
2022-09-28T20:16:14.288Z,12.13
2022-09-28T20:18:50.286Z,12.20
2022-09-28T20:21:20.189Z,12.19
2022-09-28T20:23:49.600Z,12.21
2022-09-28T20:26:17.293Z,12.23
2022-09-28T20:28:44.444Z,12.13
2022-09-28T20:31:16.550Z,12.18
2022-09-28T20:33:44.074Z,12.22
2022-09-28T20:36:13.574Z,12.27
2022-09-28T20:38:40.843Z,12.23
2022-09-28T20:41:09.262Z,12.21
2022-09-28T20:43:37.094Z,12.23
2022-09-28T20:46:04.946Z,12.26
2022-09-28T20:48:31.828Z,12.22
2022-09-28T20:51:04.490Z,12.16
2022-09-28T20:53:32.259Z,12.24
2022-09-28T20:56:00.645Z,12.15
2022-09-28T20:58:27.824Z,12.15
2022-09-28T21:01:10.772Z,12.18
2022-09-28T21:03:38.534Z,12.16
2022-09-28T21:06:12.034Z,12.20
2022-09-28T21:08:39.525Z,12.16
2022-09-28T21:11:07.312Z,12.15
2022-09-28T21:13:34.139Z,12.12
2022-09-28T21:16:02.017Z,12.16
2022-09-28T21:18:28.935Z,12.15
2022-09-28T21:20:55.835Z,12.23
2022-09-28T21:23:25.015Z,12.24
2022-09-28T21:26:07.998Z,12.20
2022-09-28T21:28:35.993Z,12.15
2022-09-28T21:31:04.982Z,12.18
2022-09-28T21:33:31.979Z,12.19
2022-09-28T21:36:03.746Z,12.24
2022-09-28T21:38:31.054Z,12.17
2022-09-28T21:40:59.255Z,12.12
2022-09-28T21:43:27.959Z,12.10
2022-09-28T21:45:55.765Z,12.15
2022-09-28T21:48:24.339Z,12.28
2022-09-28T21:50:59.445Z,12.27
2022-09-28T21:53:29.020Z,12.24
2022-09-28T21:55:58.484Z,12.27
2022-09-28T21:58:27.637Z,12.27
2022-09-28T22:01:15.540Z,12.35
2022-09-28T22:03:44.115Z,12.44
2022-09-28T22:06:11.471Z,12.50
2022-09-28T22:08:38.904Z,12.52
2022-09-28T22:11:10.783Z,12.64
2022-09-28T22:13:42.304Z,12.63
2022-09-28T22:16:10.256Z,12.60
2022-09-28T22:18:37.203Z,12.58
2022-09-28T22:21:08.953Z,12.62
2022-09-28T22:23:37.024Z,12.55
2022-09-28T22:26:07.722Z,12.57
2022-09-28T22:28:34.785Z,12.61
2022-09-28T22:31:02.243Z,12.65
2022-09-28T22:33:29.464Z,12.58
2022-09-28T22:35:56.342Z,12.48
2022-09-28T22:38:24.507Z,12.40
2022-09-28T22:40:55.723Z,12.53
2022-09-28T22:43:23.491Z,12.55
2022-09-28T22:45:51.374Z,12.52
2022-09-28T22:48:18.579Z,12.62
2022-09-28T22:50:49.722Z,12.64
2022-09-28T22:53:19.950Z,12.66
2022-09-28T22:55:46.813Z,12.66
2022-09-28T22:58:17.049Z,12.71
2022-09-28T23:00:48.313Z,12.82
2022-09-28T23:03:18.393Z,12.83
2022-09-28T23:05:55.002Z,12.80
2022-09-28T23:08:22.515Z,12.84
2022-09-28T23:10:50.410Z,12.92
2022-09-28T23:13:20.414Z,12.89
2022-09-28T23:16:01.406Z,12.71
2022-09-28T23:18:30.533Z,12.74
2022-09-28T23:20:59.303Z,12.68
2022-09-28T23:23:26.692Z,12.69
2022-09-28T23:25:54.880Z,12.56
2022-09-28T23:28:23.143Z,12.57
2022-09-28T23:30:50.773Z,12.43
2022-09-28T23:33:19.517Z,12.51
2022-09-28T23:35:49.728Z,12.64
2022-09-28T23:38:19.578Z,12.68
2022-09-28T23:40:49.575Z,12.58
2022-09-28T23:43:19.588Z,12.61
2022-09-28T23:45:46.794Z,12.66
2022-09-28T23:48:16.613Z,12.66
2022-09-28T23:50:46.227Z,12.76
2022-09-28T23:53:16.196Z,12.76
2022-09-28T23:55:45.886Z,12.79
2022-09-28T23:58:12.906Z,12.78
